Time;durP1;ratioP1;P1;durP2;ratioP2;P2;SDS_P1;SDS_P2;PMS_P1;PMS_P2;Temp;Humidity;BMP_temperature;BMP_pressure;BME280_temperature;BME280_humidity;BME280_pressure;Samples;Min_cycle;Max_cycle;Signal;HPM_P1;HPM_P2
2021/05/30 00:02:13;;;;;;;3.25;1.90;;;;;;;;;;5110457;28;20034;-71
2021/05/30 00:04:39;;;;;;;5.55;2.17;;;;;;;;;;5110096;28;20024;-71
2021/05/30 00:07:07;;;;;;;4.00;2.20;;;;;;;;;;5109122;28;20020;-70
2021/05/30 00:12:25;;;;;;;2.90;1.88;;;;;;;;;;5110464;27;20516;-70
2021/05/30 00:15:27;;;;;;;2.33;1.63;;;;;;;;;;5110501;27;20799;-70
2021/05/30 00:19:08;;;;;;;2.15;1.63;;;;;;;;;;5110106;27;20380;-70
2021/05/30 00:24:17;;;;;;;2.40;1.20;;;;;;;;;;5110267;27;20513;-71
2021/05/30 00:27:23;;;;;;;3.72;2.03;;;;;;;;;;5110593;27;20428;-71
2021/05/30 00:31:26;;;;;;;2.60;1.48;;;;;;;;;;5110231;27;20401;-71
2021/05/30 00:33:52;;;;;;;2.88;1.73;;;;;;;;;;5110434;28;20031;-71
2021/05/30 00:36:18;;;;;;;4.32;1.90;;;;;;;;;;5110329;28;20024;-71
2021/05/30 00:38:45;;;;;;;2.83;1.73;;;;;;;;;;5110255;28;20075;-71
2021/05/30 00:41:19;;;;;;;2.67;1.27;;;;;;;;;;5110455;27;20401;-71
2021/05/30 00:44:21;;;;;;;3.63;1.80;;;;;;;;;;5110485;27;20404;-71
2021/05/30 00:47:11;;;;;;;3.63;1.42;;;;;;;;;;5110390;27;20409;-70
2021/05/30 00:50:14;;;;;;;3.92;1.77;;;;;;;;;;5110759;27;20390;-71
2021/05/30 00:52:42;;;;;;;6.47;1.73;;;;;;;;;;5110078;28;20042;-71
2021/05/30 01:02:09;;;;;;;1.73;1.33;;;;;;;;;;5111020;27;20394;-71
2021/05/30 01:04:36;;;;;;;3.83;1.95;;;;;;;;;;5110471;28;20027;-71
2021/05/30 01:08:53;;;;;;;1.85;1.40;;;;;;;;;;5110591;27;20405;-71
2021/05/30 01:11:21;;;;;;;4.28;1.70;;;;;;;;;;5109258;28;20024;-70
2021/05/30 01:15:08;;;;;;;7.30;1.90;;;;;;;;;;5069597;28;20400;-70
2021/05/30 01:17:35;;;;;;;2.95;1.60;;;;;;;;;;5068611;28;20048;-70
2021/05/30 01:22:15;;;;;;;2.85;1.83;;;;;;;;;;5109986;27;20580;-71
2021/05/30 01:24:41;;;;;;;3.03;1.60;;;;;;;;;;5111097;28;20027;-70
2021/05/30 01:27:07;;;;;;;4.05;1.80;;;;;;;;;;5110566;28;20024;-71
2021/05/30 01:29:34;;;;;;;3.70;1.63;;;;;;;;;;5110242;28;20027;-70
2021/05/30 01:32:00;;;;;;;2.70;1.80;;;;;;;;;;5110421;28;20031;-71
2021/05/30 01:34:26;;;;;;;2.70;1.48;;;;;;;;;;5110180;28;20384;-71
2021/05/30 01:36:52;;;;;;;2.88;1.63;;;;;;;;;;5110285;28;20039;-71
2021/05/30 01:39:18;;;;;;;2.50;1.55;;;;;;;;;;5110239;28;20024;-71
2021/05/30 01:41:44;;;;;;;3.40;2.05;;;;;;;;;;5108387;28;20455;-71
2021/05/30 01:44:11;;;;;;;2.92;1.45;;;;;;;;;;5110131;28;20027;-71
2021/05/30 01:46:37;;;;;;;2.40;1.65;;;;;;;;;;5110054;28;20529;-70
2021/05/30 01:49:03;;;;;;;2.10;1.50;;;;;;;;;;5108571;28;20032;-71
2021/05/30 01:52:17;;;;;;;2.40;1.50;;;;;;;;;;5069832;28;20822;-71
2021/05/30 01:54:47;;;;;;;6.05;1.65;;;;;;;;;;5069909;28;20024;-71
2021/05/30 01:57:14;;;;;;;4.50;1.67;;;;;;;;;;5069527;28;20036;-71
2021/05/30 02:01:56;;;;;;;3.42;1.38;;;;;;;;;;5110356;27;20980;-71
2021/05/30 02:04:24;;;;;;;3.20;1.67;;;;;;;;;;5110216;28;20031;-71
2021/05/30 02:07:23;;;;;;;3.65;1.83;;;;;;;;;;5110481;27;20423;-71
2021/05/30 02:09:50;;;;;;;7.38;1.95;;;;;;;;;;5126044;28;20035;-71
2021/05/30 02:13:12;;;;;;;2.63;1.63;;;;;;;;;;5110494;27;20403;-71
2021/05/30 02:15:38;;;;;;;6.65;1.90;;;;;;;;;;5110393;28;20060;-71
2021/05/30 02:18:05;;;;;;;2.95;1.77;;;;;;;;;;5109937;28;20050;-70
2021/05/30 02:20:31;;;;;;;3.35;1.70;;;;;;;;;;5110420;28;20024;-70
2021/05/30 02:22:57;;;;;;;6.63;1.90;;;;;;;;;;5110350;28;20089;-71
2021/05/30 02:27:02;;;;;;;5.07;1.75;;;;;;;;;;5110504;27;20413;-70
2021/05/30 02:29:36;;;;;;;2.97;1.83;;;;;;;;;;5110798;28;20069;-71
2021/05/30 02:32:26;;;;;;;4.82;1.65;;;;;;;;;;5110146;27;20908;-71
2021/05/30 02:34:52;;;;;;;4.78;1.80;;;;;;;;;;5110471;28;20032;-71
2021/05/30 02:37:18;;;;;;;2.75;1.45;;;;;;;;;;5110497;28;20028;-71
2021/05/30 02:39:47;;;;;;;2.58;1.50;;;;;;;;;;5108690;28;20028;-71
2021/05/30 02:43:01;;;;;;;3.17;1.63;;;;;;;;;;5110489;27;20878;-70
2021/05/30 02:45:27;;;;;;;2.13;1.52;;;;;;;;;;5110062;28;20030;-70
2021/05/30 02:48:21;;;;;;;2.60;1.40;;;;;;;;;;5070026;28;20411;-70
2021/05/30 02:51:30;;;;;;;2.28;1.65;;;;;;;;;;5110615;27;20516;-71
2021/05/30 02:56:20;;;;;;;2.15;1.40;;;;;;;;;;5069876;28;20392;-71
2021/05/30 02:58:46;;;;;;;3.22;1.55;;;;;;;;;;5069415;28;20016;-71
2021/05/30 03:01:12;;;;;;;3.75;1.67;;;;;;;;;;5068533;28;20028;-71
2021/05/30 03:04:13;;;;;;;2.70;1.70;;;;;;;;;;5110381;27;20662;-71
2021/05/30 03:06:39;;;;;;;5.38;1.80;;;;;;;;;;5110117;28;20073;-71
2021/05/30 03:09:06;;;;;;;3.75;1.70;;;;;;;;;;5110540;28;20022;-71
2021/05/30 03:14:04;;;;;;;3.75;1.98;;;;;;;;;;5110145;27;20520;-70
2021/05/30 03:16:30;;;;;;;4.35;1.80;;;;;;;;;;5110307;28;20031;-70
2021/05/30 03:18:56;;;;;;;3.25;1.83;;;;;;;;;;5110462;28;20077;-71
2021/05/30 03:21:22;;;;;;;3.60;2.03;;;;;;;;;;5110046;28;20020;-71
2021/05/30 03:25:18;;;;;;;5.57;1.85;;;;;;;;;;5069811;28;20473;-71
2021/05/30 03:30:44;;;;;;;3.97;1.98;;;;;;;;;;5110552;27;20439;-71
2021/05/30 03:33:11;;;;;;;2.70;1.88;;;;;;;;;;5109108;28;20039;-71
2021/05/30 03:37:28;;;;;;;3.85;1.98;;;;;;;;;;5110392;27;20533;-71
2021/05/30 03:43:35;;;;;;;2.50;1.60;;;;;;;;;;5069857;28;20475;-71
2021/05/30 03:46:02;;;;;;;3.10;1.92;;;;;;;;;;5069972;28;20037;-71
2021/05/30 03:48:29;;;;;;;10.18;2.25;;;;;;;;;;5069696;28;20028;-71
2021/05/30 03:50:55;;;;;;;3.35;1.60;;;;;;;;;;5069988;28;20477;-71
2021/05/30 03:55:19;;;;;;;4.20;1.65;;;;;;;;;;5110119;27;20408;-71
2021/05/30 03:57:45;;;;;;;3.33;1.75;;;;;;;;;;5126349;28;20035;-71
2021/05/30 04:00:21;;;;;;;4.22;1.90;;;;;;;;;;5110399;28;20020;-71
2021/05/30 04:03:18;;;;;;;2.50;1.50;;;;;;;;;;5110102;27;20377;-71
2021/05/30 04:07:21;;;;;;;3.78;1.58;;;;;;;;;;5130972;27;20323;-71
2021/05/30 04:13:16;;;;;;;2.70;1.52;;;;;;;;;;5070042;28;20403;-71
2021/05/30 04:15:42;;;;;;;3.47;1.73;;;;;;;;;;5069918;28;20107;-71
2021/05/30 04:22:03;;;;;;;3.35;1.60;;;;;;;;;;5110683;27;20408;-71
2021/05/30 04:24:29;;;;;;;3.10;2.17;;;;;;;;;;5109012;28;20048;-71
2021/05/30 04:26:55;;;;;;;3.47;1.73;;;;;;;;;;5110405;28;20043;-71
2021/05/30 04:29:21;;;;;;;5.60;1.88;;;;;;;;;;5110341;28;20472;-71
2021/05/30 04:31:48;;;;;;;3.13;2.03;;;;;;;;;;5109924;28;20024;-71
2021/05/30 04:34:14;;;;;;;4.00;1.95;;;;;;;;;;5108956;28;20476;-71
2021/05/30 04:39:34;;;;;;;3.38;2.00;;;;;;;;;;5110440;27;20416;-71
2021/05/30 04:42:02;;;;;;;2.63;1.60;;;;;;;;;;5110615;28;20452;-71
2021/05/30 04:44:28;;;;;;;3.40;1.80;;;;;;;;;;5110189;28;20020;-71
2021/05/30 04:46:55;;;;;;;2.80;1.73;;;;;;;;;;5109098;28;20388;-71
2021/05/30 04:52:46;;;;;;;2.25;1.65;;;;;;;;;;5110060;27;20826;-71
2021/05/30 04:55:12;;;;;;;3.67;1.92;;;;;;;;;;5109173;28;20034;-71
2021/05/30 04:57:41;;;;;;;4.30;2.05;;;;;;;;;;5109059;28;20031;-71
2021/05/30 05:00:08;;;;;;;3.25;1.90;;;;;;;;;;5110262;28;20020;-71
2021/05/30 05:04:28;;;;;;;4.38;2.28;;;;;;;;;;5069812;28;20423;-70
2021/05/30 05:06:54;;;;;;;4.93;2.10;;;;;;;;;;5069495;28;20024;-71
2021/05/30 05:10:18;;;;;;;3.58;1.98;;;;;;;;;;5110468;27;20396;-71
2021/05/30 05:15:54;;;;;;;6.57;2.25;;;;;;;;;;5110486;27;20465;-70
2021/05/30 05:19:02;;;;;;;4.55;2.00;;;;;;;;;;5110536;27;20402;-70
2021/05/30 05:22:30;;;;;;;3.60;2.10;;;;;;;;;;5110457;27;20461;-71
2021/05/30 05:24:57;;;;;;;4.75;1.95;;;;;;;;;;5110539;28;20031;-71
2021/05/30 05:27:23;;;;;;;4.30;1.65;;;;;;;;;;5109984;28;20392;-71
2021/05/30 05:29:49;;;;;;;2.78;1.70;;;;;;;;;;5110376;28;20047;-71
2021/05/30 05:32:15;;;;;;;4.00;1.75;;;;;;;;;;5110263;28;20441;-71
2021/05/30 05:35:36;;;;;;;5.03;2.80;;;;;;;;;;5109929;27;20396;-71
2021/05/30 05:38:34;;;;;;;3.78;2.47;;;;;;;;;;5110521;27;21048;-71
2021/05/30 05:41:00;;;;;;;5.53;2.45;;;;;;;;;;5110263;28;20077;-71
2021/05/30 05:51:29;;;;;;;4.15;1.92;;;;;;;;;;5110393;27;20415;-70
2021/05/30 05:53:55;;;;;;;3.67;1.80;;;;;;;;;;5110462;28;20032;-71
2021/05/30 05:56:21;;;;;;;4.05;1.95;;;;;;;;;;5109888;28;20085;-71
2021/05/30 05:58:48;;;;;;;3.58;2.33;;;;;;;;;;5110584;28;20019;-71
2021/05/30 06:01:14;;;;;;;4.90;2.65;;;;;;;;;;5110519;28;20024;-70
2021/05/30 06:03:40;;;;;;;3.40;2.05;;;;;;;;;;5108887;28;20053;-70
2021/05/30 06:06:06;;;;;;;4.35;2.03;;;;;;;;;;5108904;28;20026;-71
2021/05/30 06:10:00;;;;;;;2.58;1.55;;;;;;;;;;5110040;27;20404;-71
2021/05/30 06:12:27;;;;;;;2.13;1.50;;;;;;;;;;5109180;28;20031;-70
2021/05/30 06:14:53;;;;;;;3.33;2.00;;;;;;;;;;5110320;28;20020;-71
2021/05/30 06:19:00;;;;;;;2.42;1.73;;;;;;;;;;5069925;28;20391;-71
2021/05/30 06:21:26;;;;;;;3.45;1.85;;;;;;;;;;5070153;28;20075;-71
2021/05/30 06:24:40;;;;;;;4.40;2.10;;;;;;;;;;5110062;27;20409;-71
2021/05/30 06:27:07;;;;;;;3.47;2.05;;;;;;;;;;5126248;28;20032;-71
2021/05/30 06:29:33;;;;;;;4.13;2.00;;;;;;;;;;5126003;28;20020;-71
2021/05/30 06:31:59;;;;;;;4.60;2.05;;;;;;;;;;5110140;28;20024;-71
2021/05/30 06:34:26;;;;;;;3.20;1.83;;;;;;;;;;5110284;28;20016;-71
2021/05/30 06:36:52;;;;;;;5.65;2.50;;;;;;;;;;5125789;28;20057;-71
2021/05/30 06:39:19;;;;;;;2.00;1.60;;;;;;;;;;5110381;28;20031;-71
2021/05/30 06:41:45;;;;;;;4.40;1.73;;;;;;;;;;5110336;28;20099;-72
2021/05/30 06:44:11;;;;;;;3.67;2.03;;;;;;;;;;5109586;28;20073;-71
2021/05/30 06:46:51;;;;;;;3.35;2.22;;;;;;;;;;5110394;27;20407;-72
2021/05/30 06:49:18;;;;;;;6.35;2.97;;;;;;;;;;5110699;28;20032;-72
2021/05/30 06:51:44;;;;;;;4.30;2.22;;;;;;;;;;5109950;28;20024;-72
2021/05/30 06:54:10;;;;;;;3.50;2.22;;;;;;;;;;5110348;28;20506;-72
2021/05/30 06:56:37;;;;;;;14.82;2.47;;;;;;;;;;5110374;28;20024;-72
2021/05/30 06:59:39;;;;;;;2.40;1.40;;;;;;;;;;5110307;27;20408;-71
2021/05/30 07:02:05;;;;;;;3.97;2.30;;;;;;;;;;5109165;28;20492;-71
2021/05/30 07:04:32;;;;;;;4.75;2.10;;;;;;;;;;5110316;28;20028;-72
2021/05/30 07:08:32;;;;;;;4.50;2.03;;;;;;;;;;5069816;28;20423;-70
2021/05/30 07:10:58;;;;;;;4.75;2.13;;;;;;;;;;5069763;28;20033;-71
2021/05/30 07:13:25;;;;;;;7.63;3.15;;;;;;;;;;5068109;28;20017;-71
2021/05/30 07:15:53;;;;;;;6.30;2.70;;;;;;;;;;5069939;28;20547;-71
2021/05/30 07:18:20;;;;;;;5.10;2.10;;;;;;;;;;5068609;28;20029;-70
2021/05/30 07:21:23;;;;;;;3.20;2.05;;;;;;;;;;5110582;27;20454;-71
2021/05/30 07:23:49;;;;;;;7.57;2.40;;;;;;;;;;5109036;28;20089;-71
2021/05/30 07:26:15;;;;;;;6.00;1.80;;;;;;;;;;5110025;28;20023;-72
2021/05/30 07:29:17;;;;;;;3.72;1.88;;;;;;;;;;5110461;27;20412;-71
2021/05/30 07:34:05;;;;;;;3.17;1.58;;;;;;;;;;5110177;27;20388;-71
2021/05/30 07:36:32;;;;;;;4.18;1.90;;;;;;;;;;5110440;28;20315;-71
2021/05/30 07:38:58;;;;;;;2.63;1.48;;;;;;;;;;5110552;28;20024;-71
2021/05/30 07:41:25;;;;;;;4.28;1.80;;;;;;;;;;5125938;28;20024;-71
2021/05/30 07:46:11;;;;;;;5.15;2.00;;;;;;;;;;5070577;28;20453;-71
2021/05/30 07:49:29;;;;;;;2.67;1.35;;;;;;;;;;5110477;27;20535;-71
2021/05/30 07:51:55;;;;;;;2.40;1.33;;;;;;;;;;5110471;28;20028;-71
2021/05/30 07:54:44;;;;;;;2.15;1.35;;;;;;;;;;5069550;28;20425;-71
2021/05/30 07:57:10;;;;;;;3.10;1.45;;;;;;;;;;5068591;28;20075;-71
2021/05/30 07:59:36;;;;;;;2.53;1.65;;;;;;;;;;5068723;28;20433;-72
2021/05/30 08:02:03;;;;;;;2.67;1.40;;;;;;;;;;5069449;28;20025;-72
2021/05/30 08:04:29;;;;;;;3.60;1.30;;;;;;;;;;5068518;28;20025;-71
2021/05/30 08:06:55;;;;;;;4.78;1.52;;;;;;;;;;5069702;28;20477;-72
2021/05/30 08:09:21;;;;;;;2.60;1.33;;;;;;;;;;5069290;28;20052;-72
2021/05/30 08:13:48;;;;;;;2.78;1.50;;;;;;;;;;5069856;27;20961;-71
2021/05/30 08:16:14;;;;;;;4.68;1.73;;;;;;;;;;5085408;28;20029;-73
2021/05/30 08:18:41;;;;;;;2.13;1.30;;;;;;;;;;5069892;28;20028;-72
2021/05/30 08:21:07;;;;;;;5.10;1.80;;;;;;;;;;5068822;28;20021;-72
2021/05/30 08:23:35;;;;;;;2.95;1.42;;;;;;;;;;5069418;28;20017;-73
2021/05/30 08:26:01;;;;;;;2.05;1.23;;;;;;;;;;5069625;28;20025;-73
2021/05/30 08:28:27;;;;;;;3.50;1.60;;;;;;;;;;5069699;28;20143;-72
2021/05/30 08:32:37;;;;;;;8.27;1.90;;;;;;;;;;5111005;27;20525;-72
2021/05/30 08:35:06;;;;;;;1.77;1.33;;;;;;;;;;5110386;28;20035;-72
2021/05/30 08:37:32;;;;;;;2.53;1.38;;;;;;;;;;5110088;28;20511;-72
2021/05/30 08:41:23;;;;;;;1.90;1.10;;;;;;;;;;5110538;27;20404;-73
2021/05/30 08:44:02;;;;;;;4.53;1.50;;;;;;;;;;5110135;27;20815;-72
2021/05/30 08:46:29;;;;;;;2.03;1.17;;;;;;;;;;5110376;28;20024;-72
2021/05/30 08:48:56;;;;;;;3.47;1.58;;;;;;;;;;5109099;28;20024;-72
2021/05/30 08:51:23;;;;;;;2.50;1.33;;;;;;;;;;5109974;28;20099;-72
2021/05/30 08:53:49;;;;;;;1.73;1.10;;;;;;;;;;5110408;28;20383;-72
2021/05/30 08:56:17;;;;;;;1.63;1.30;;;;;;;;;;5109024;28;20503;-72
2021/05/30 09:00:41;;;;;;;2.20;1.10;;;;;;;;;;5110609;27;20430;-71
2021/05/30 09:03:11;;;;;;;1.85;1.30;;;;;;;;;;5110727;28;20031;-71
2021/05/30 09:05:38;;;;;;;2.22;1.20;;;;;;;;;;5109979;28;20089;-72
2021/05/30 09:08:04;;;;;;;2.55;1.50;;;;;;;;;;5109108;28;20335;-72
2021/05/30 09:10:30;;;;;;;2.50;1.10;;;;;;;;;;5110289;28;20047;-72
2021/05/30 09:13:17;;;;;;;1.65;1.20;;;;;;;;;;5109860;28;20020;-72
2021/05/30 09:15:55;;;;;;;2.95;1.75;;;;;;;;;;5108934;28;20391;-71
2021/05/30 09:20:19;;;;;;;1.98;1.20;;;;;;;;;;5110254;27;21057;-72
2021/05/30 09:22:46;;;;;;;6.22;1.33;;;;;;;;;;5110631;28;20471;-72
2021/05/30 09:25:13;;;;;;;2.65;1.33;;;;;;;;;;5109128;28;20035;-72
2021/05/30 09:27:44;;;;;;;7.60;1.35;;;;;;;;;;5108724;28;20081;-72
2021/05/30 09:30:10;;;;;;;1.77;1.17;;;;;;;;;;5110301;28;20471;-72
2021/05/30 09:32:52;;;;;;;2.00;1.08;;;;;;;;;;5110235;28;20484;-72
2021/05/30 09:35:19;;;;;;;2.92;1.38;;;;;;;;;;5110194;28;20035;-72
2021/05/30 09:37:45;;;;;;;2.25;1.10;;;;;;;;;;5110274;28;20024;-72
2021/05/30 09:40:11;;;;;;;2.13;1.40;;;;;;;;;;5108468;28;20061;-73
2021/05/30 09:42:37;;;;;;;3.00;1.33;;;;;;;;;;5110352;28;20421;-73
2021/05/30 09:45:05;;;;;;;2.15;1.33;;;;;;;;;;5108804;28;20031;-73
2021/05/30 09:47:35;;;;;;;1.85;1.10;;;;;;;;;;5109533;28;20028;-72
2021/05/30 09:50:02;;;;;;;2.55;1.50;;;;;;;;;;5109938;28;20024;-72
2021/05/30 09:52:38;;;;;;;1.75;1.20;;;;;;;;;;5108698;28;20111;-73
2021/05/30 09:55:18;;;;;;;2.15;1.17;;;;;;;;;;5109455;28;20380;-73
2021/05/30 09:58:03;;;;;;;1.67;1.20;;;;;;;;;;5109758;28;20480;-73
2021/05/30 10:00:29;;;;;;;2.75;1.10;;;;;;;;;;5108485;28;20191;-73
2021/05/30 10:02:56;;;;;;;2.67;1.23;;;;;;;;;;5109462;28;20052;-73
2021/05/30 10:05:22;;;;;;;2.10;1.27;;;;;;;;;;5108402;28;20027;-73
2021/05/30 10:07:49;;;;;;;2.65;1.13;;;;;;;;;;5108067;28;20058;-73
2021/05/30 10:14:04;;;;;;;6.05;1.80;;;;;;;;;;5090749;27;20736;-72
2021/05/30 10:17:12;;;;;;;2.65;1.10;;;;;;;;;;5110017;27;20412;-72
2021/05/30 10:19:41;;;;;;;2.50;1.42;;;;;;;;;;5110420;28;20024;-72
2021/05/30 10:22:09;;;;;;;1.92;1.20;;;;;;;;;;5110168;28;20019;-72
2021/05/30 10:24:39;;;;;;;2.97;1.33;;;;;;;;;;5110366;28;20425;-72
2021/05/30 10:27:11;;;;;;;2.25;1.08;;;;;;;;;;5110269;28;20031;-73
2021/05/30 10:31:15;;;;;;;1.63;1.27;;;;;;;;;;5110046;27;20617;-72
2021/05/30 10:35:54;;;;;;;6.05;1.52;;;;;;;;;;5110500;27;20389;-72
2021/05/30 10:38:36;;;;;;;5.00;1.38;;;;;;;;;;5108769;28;20024;-73
2021/05/30 10:41:02;;;;;;;;;;;;;;;;;;5110793;28;20030;-72
2021/05/30 10:45:02;;;;;;;2.35;1.23;;;;;;;;;;5110778;27;20436;-72
2021/05/30 10:47:43;;;;;;;4.65;1.27;;;;;;;;;;5110402;28;20089;-72
2021/05/30 10:50:14;;;;;;;3.47;1.30;;;;;;;;;;5110063;28;20098;-72
2021/05/30 10:52:41;;;;;;;2.13;1.30;;;;;;;;;;5108799;28;20031;-72
2021/05/30 10:57:36;;;;;;;5.32;2.72;;;;;;;;;;5109974;27;20404;-72
2021/05/30 11:00:22;;;;;;;2.33;1.63;;;;;;;;;;5109171;28;20028;-72
2021/05/30 11:03:05;;;;;;;5.28;1.98;;;;;;;;;;5110468;28;20032;-72
2021/05/30 11:05:47;;;;;;;2.70;1.80;;;;;;;;;;5108638;28;20024;-71
2021/05/30 11:08:32;;;;;;;3.38;2.28;;;;;;;;;;5110263;28;20020;-72
2021/05/30 11:11:29;;;;;;;7.97;2.15;;;;;;;;;;5069566;27;20399;-72
2021/05/30 11:13:56;;;;;;;8.00;2.25;;;;;;;;;;5068902;28;20137;-72
2021/05/30 11:16:23;;;;;;;3.25;1.38;;;;;;;;;;5069928;28;20035;-72
2021/05/30 11:18:58;;;;;;;3.05;1.77;;;;;;;;;;5069517;28;20491;-72
2021/05/30 11:21:40;;;;;;;4.85;1.80;;;;;;;;;;5069743;28;20532;-72
2021/05/30 11:24:07;;;;;;;4.15;2.75;;;;;;;;;;5068650;28;20048;-72
2021/05/30 11:26:34;;;;;;;6.10;2.08;;;;;;;;;;5069293;28;20104;-72
2021/05/30 11:29:01;;;;;;;3.67;2.38;;;;;;;;;;5069572;28;20071;-72
2021/05/30 11:31:27;;;;;;;4.95;2.45;;;;;;;;;;5069521;28;20033;-72
2021/05/30 11:33:55;;;;;;;4.25;2.65;;;;;;;;;;5067685;28;20108;-72
2021/05/30 11:37:07;;;;;;;5.60;2.65;;;;;;;;;;5110498;27;20761;-72
2021/05/30 11:39:52;;;;;;;6.25;2.90;;;;;;;;;;5110000;28;20065;-72
2021/05/30 11:42:24;;;;;;;5.75;2.70;;;;;;;;;;5110231;28;20534;-72
2021/05/30 11:44:50;;;;;;;10.17;2.87;;;;;;;;;;5110438;28;20488;-73
2021/05/30 11:47:16;;;;;;;6.93;2.53;;;;;;;;;;5109941;28;20024;-72
2021/05/30 11:51:12;;;;;;;6.10;2.53;;;;;;;;;;5110244;27;20812;-72
2021/05/30 11:53:38;;;;;;;5.10;2.75;;;;;;;;;;5109886;28;20036;-72
2021/05/30 11:56:06;;;;;;;4.53;2.50;;;;;;;;;;5110335;28;20055;-72
2021/05/30 11:58:33;;;;;;;4.47;2.30;;;;;;;;;;5110260;28;20468;-72
2021/05/30 12:00:59;;;;;;;4.38;2.70;;;;;;;;;;5110003;28;20085;-72
2021/05/30 12:03:25;;;;;;;5.38;2.88;;;;;;;;;;5110493;28;20095;-72
2021/05/30 12:05:58;;;;;;;5.72;2.50;;;;;;;;;;5108984;28;20020;-72
2021/05/30 12:08:24;;;;;;;3.72;2.55;;;;;;;;;;5109546;28;20430;-72
2021/05/30 12:10:55;;;;;;;8.38;2.47;;;;;;;;;;5110005;28;20032;-72
2021/05/30 12:14:47;;;;;;;5.43;3.00;;;;;;;;;;5110081;27;20788;-71
2021/05/30 12:17:13;;;;;;;4.72;2.55;;;;;;;;;;5110384;28;20488;-71
2021/05/30 12:19:43;;;;;;;3.75;2.53;;;;;;;;;;5110533;28;20098;-72
2021/05/30 12:23:16;;;;;;;6.80;3.03;;;;;;;;;;5110020;27;20931;-72
2021/05/30 12:25:52;;;;;;;7.13;3.25;;;;;;;;;;5109138;28;20065;-72
2021/05/30 12:29:52;;;;;;;5.82;3.30;;;;;;;;;;5109976;27;20469;-71
2021/05/30 12:32:50;;;;;;;7.80;3.85;;;;;;;;;;5069942;28;20965;-71
2021/05/30 12:35:16;;;;;;;6.88;3.70;;;;;;;;;;5069873;28;20025;-71
2021/05/30 12:39:26;;;;;;;6.80;3.47;;;;;;;;;;5090775;27;20390;-72
2021/05/30 12:44:04;;;;;;;8.52;3.30;;;;;;;;;;5109986;27;20397;-72
2021/05/30 12:46:30;;;;;;;8.20;3.83;;;;;;;;;;5110395;28;20561;-72
2021/05/30 12:48:56;;;;;;;6.60;3.58;;;;;;;;;;5110391;28;20024;-72
2021/05/30 12:51:26;;;;;;;5.40;3.20;;;;;;;;;;5109964;28;20016;-72
2021/05/30 12:53:52;;;;;;;5.53;2.95;;;;;;;;;;5108993;28;20032;-71
2021/05/30 12:56:27;;;;;;;5.47;3.63;;;;;;;;;;5110249;28;20027;-72
2021/05/30 12:59:12;;;;;;;10.43;3.53;;;;;;;;;;5108785;28;20028;-72
2021/05/30 13:03:32;;;;;;;7.05;3.65;;;;;;;;;;5110439;27;20457;-73
2021/05/30 13:08:22;;;;;;;5.18;3.40;;;;;;;;;;5110380;27;20473;-71
2021/05/30 13:10:51;;;;;;;7.15;3.85;;;;;;;;;;5109974;28;20030;-73
2021/05/30 13:13:25;;;;;;;5.85;3.45;;;;;;;;;;5110447;28;20020;-71
2021/05/30 13:15:51;;;;;;;6.65;4.35;;;;;;;;;;5110635;28;20019;-71
2021/05/30 13:18:17;;;;;;;10.38;5.03;;;;;;;;;;5110063;28;20015;-73
2021/05/30 13:20:46;;;;;;;8.32;5.00;;;;;;;;;;5110429;28;20028;-73
2021/05/30 13:23:17;;;;;;;6.93;4.45;;;;;;;;;;5109993;28;20490;-73
2021/05/30 13:25:47;;;;;;;6.88;4.70;;;;;;;;;;5109640;28;20024;-73
2021/05/30 13:28:15;;;;;;;10.43;5.13;;;;;;;;;;5110162;28;20365;-73
2021/05/30 13:30:41;;;;;;;8.52;5.30;;;;;;;;;;5110117;28;20020;-72
2021/05/30 13:33:30;;;;;;;8.68;5.35;;;;;;;;;;5069630;28;20832;-73
2021/05/30 13:38:25;;;;;;;8.52;5.60;;;;;;;;;;5110684;27;20376;-71
2021/05/30 13:40:52;;;;;;;6.60;4.80;;;;;;;;;;5110119;28;20028;-71
2021/05/30 13:43:19;;;;;;;8.80;6.05;;;;;;;;;;5110394;28;20494;-73
2021/05/30 13:47:02;;;;;;;8.77;5.70;;;;;;;;;;5109971;27;20513;-72
2021/05/30 13:49:28;;;;;;;8.20;5.93;;;;;;;;;;5109166;28;20032;-72
2021/05/30 13:51:54;;;;;;;9.07;6.80;;;;;;;;;;5110354;28;20098;-73
2021/05/30 13:55:44;;;;;;;10.82;7.13;;;;;;;;;;5069765;28;20395;-72
2021/05/30 13:58:10;;;;;;;11.75;6.90;;;;;;;;;;5070083;28;20032;-72
2021/05/30 14:00:37;;;;;;;8.50;5.50;;;;;;;;;;5069644;28;20035;-72
2021/05/30 14:04:39;;;;;;;10.32;5.88;;;;;;;;;;5110558;27;20393;-74
2021/05/30 14:07:25;;;;;;;8.07;5.53;;;;;;;;;;5110046;27;20480;-71
2021/05/30 14:09:51;;;;;;;7.38;5.43;;;;;;;;;;5110331;28;20020;-72
2021/05/30 14:12:17;;;;;;;7.72;5.50;;;;;;;;;;5109073;28;20043;-72
2021/05/30 14:14:44;;;;;;;9.57;6.40;;;;;;;;;;5109922;28;20024;-72
2021/05/30 14:17:10;;;;;;;9.93;5.60;;;;;;;;;;5109047;28;20023;-72
2021/05/30 14:19:48;;;;;;;11.07;5.93;;;;;;;;;;5110711;27;20397;-71
2021/05/30 14:22:14;;;;;;;9.32;5.50;;;;;;;;;;5110098;28;20103;-71
2021/05/30 14:24:41;;;;;;;9.88;5.32;;;;;;;;;;5110323;28;20468;-71
2021/05/30 14:27:07;;;;;;;7.90;5.50;;;;;;;;;;5110306;28;20039;-73
2021/05/30 14:29:33;;;;;;;8.63;5.80;;;;;;;;;;5109842;28;20024;-73
2021/05/30 14:32:00;;;;;;;12.75;7.68;;;;;;;;;;5110213;28;20117;-73
2021/05/30 14:34:26;;;;;;;12.68;7.35;;;;;;;;;;5108859;28;20081;-73
2021/05/30 14:36:52;;;;;;;12.40;7.95;;;;;;;;;;5109777;28;20024;-73
2021/05/30 14:39:18;;;;;;;9.55;6.25;;;;;;;;;;5110046;28;20088;-74
2021/05/30 14:41:45;;;;;;;8.43;6.38;;;;;;;;;;5108940;28;20076;-73
2021/05/30 14:44:11;;;;;;;10.55;6.80;;;;;;;;;;5109537;28;20020;-73
2021/05/30 14:46:37;;;;;;;9.73;6.57;;;;;;;;;;5110415;28;20461;-72
2021/05/30 14:49:04;;;;;;;11.52;7.70;;;;;;;;;;5109930;28;20027;-73
2021/05/30 14:51:32;;;;;;;9.88;6.65;;;;;;;;;;5110245;28;20016;-73
2021/05/30 14:53:59;;;;;;;10.38;6.78;;;;;;;;;;5109844;28;20451;-73
2021/05/30 14:57:48;;;;;;;9.73;6.10;;;;;;;;;;5110067;27;20799;-71
2021/05/30 15:00:15;;;;;;;11.00;5.95;;;;;;;;;;5110698;28;20020;-72
2021/05/30 15:02:42;;;;;;;9.43;6.53;;;;;;;;;;5110463;28;20081;-72
2021/05/30 15:05:09;;;;;;;8.30;6.13;;;;;;;;;;5108676;28;20483;-72
2021/05/30 15:09:02;;;;;;;9.25;6.55;;;;;;;;;;5110406;27;20412;-73
2021/05/30 15:11:28;;;;;;;8.90;6.05;;;;;;;;;;5110347;28;20437;-73
2021/05/30 15:13:54;;;;;;;9.60;6.55;;;;;;;;;;5110407;28;20028;-72
2021/05/30 15:16:21;;;;;;;9.57;6.72;;;;;;;;;;5110414;28;20379;-72
2021/05/30 15:18:47;;;;;;;10.82;8.38;;;;;;;;;;5109923;28;20488;-71
2021/05/30 15:21:13;;;;;;;8.93;6.05;;;;;;;;;;5126403;28;20028;-72
2021/05/30 15:23:39;;;;;;;9.77;6.45;;;;;;;;;;5126072;28;20037;-73
2021/05/30 15:27:35;;;;;;;9.75;6.38;;;;;;;;;;5110339;27;20473;-72
2021/05/30 15:30:05;;;;;;;10.25;6.72;;;;;;;;;;5110368;28;20056;-72
2021/05/30 15:34:20;;;;;;;10.48;7.07;;;;;;;;;;5110411;27;20524;-72
2021/05/30 15:37:50;;;;;;;9.18;7.15;;;;;;;;;;5110328;27;20959;-72
2021/05/30 15:44:09;;;;;;;9.65;6.45;;;;;;;;;;5110413;27;20405;-72
2021/05/30 15:46:36;;;;;;;8.95;6.20;;;;;;;;;;5108843;28;20012;-72
2021/05/30 15:50:28;;;;;;;9.23;6.05;;;;;;;;;;5110643;27;20381;-72
2021/05/30 15:53:31;;;;;;;9.25;6.65;;;;;;;;;;5110125;27;20384;-73
2021/05/30 15:55:57;;;;;;;10.85;6.32;;;;;;;;;;5110442;28;20510;-73
2021/05/30 15:58:23;;;;;;;8.88;6.30;;;;;;;;;;5110510;28;20019;-72
2021/05/30 16:02:39;;;;;;;9.77;6.55;;;;;;;;;;5102402;27;20423;-74
2021/05/30 16:05:05;;;;;;;9.40;6.30;;;;;;;;;;5068625;28;20029;-74
2021/05/30 16:07:31;;;;;;;9.50;6.78;;;;;;;;;;5069398;28;20021;-72
2021/05/30 16:11:12;;;;;;;8.70;6.00;;;;;;;;;;5110462;27;21037;-72
2021/05/30 16:13:38;;;;;;;9.13;6.43;;;;;;;;;;5110029;28;20027;-73
2021/05/30 16:16:54;;;;;;;9.30;6.00;;;;;;;;;;5131096;27;20650;-74
2021/05/30 16:20:32;;;;;;;12.05;7.50;;;;;;;;;;5110344;27;20818;-72
2021/05/30 16:22:58;;;;;;;9.52;6.82;;;;;;;;;;5110574;28;20392;-72
2021/05/30 16:25:24;;;;;;;8.10;5.60;;;;;;;;;;5110311;28;20101;-72
2021/05/30 16:28:25;;;;;;;9.63;6.00;;;;;;;;;;5110000;27;20400;-71
2021/05/30 16:33:40;;;;;;;12.20;7.18;;;;;;;;;;5110539;27;20406;-73
2021/05/30 16:38:44;;;;;;;9.45;6.55;;;;;;;;;;5110635;27;20426;-72
2021/05/30 16:41:10;;;;;;;9.68;6.10;;;;;;;;;;5110950;28;20077;-72
2021/05/30 16:45:34;;;;;;;9.68;6.55;;;;;;;;;;5110980;27;20462;-71
2021/05/30 16:54:49;;;;;;;9.88;6.63;;;;;;;;;;5110454;27;20988;-73
2021/05/30 16:58:26;;;;;;;8.95;6.20;;;;;;;;;;5111095;27;20465;-71
2021/05/30 17:00:52;;;;;;;11.23;6.57;;;;;;;;;;5109388;28;20023;-71
2021/05/30 17:03:57;;;;;;;10.57;7.00;;;;;;;;;;5110569;27;20457;-73
2021/05/30 17:06:23;;;;;;;10.38;5.68;;;;;;;;;;5110490;28;20102;-72
2021/05/30 17:08:50;;;;;;;7.47;5.47;;;;;;;;;;5110313;28;20050;-71
2021/05/30 17:11:16;;;;;;;9.65;7.05;;;;;;;;;;5109893;28;20016;-72
2021/05/30 17:14:54;;;;;;;9.23;6.03;;;;;;;;;;5105548;27;20917;-73
2021/05/30 17:17:20;;;;;;;9.65;6.70;;;;;;;;;;5089872;28;20066;-71
2021/05/30 17:19:46;;;;;;;11.23;6.63;;;;;;;;;;5090248;28;20047;-71
2021/05/30 17:22:12;;;;;;;9.88;5.93;;;;;;;;;;5090094;28;20025;-71
2021/05/30 17:26:57;;;;;;;10.38;5.82;;;;;;;;;;5069887;28;20399;-71
2021/05/30 17:29:23;;;;;;;9.10;6.22;;;;;;;;;;5069836;28;20020;-72
2021/05/30 17:36:53;;;;;;;8.02;5.85;;;;;;;;;;5110479;27;20888;-71
2021/05/30 17:41:26;;;;;;;10.75;6.45;;;;;;;;;;5110542;27;20420;-71
2021/05/30 17:43:52;;;;;;;8.30;5.80;;;;;;;;;;5126202;28;20020;-71
2021/05/30 17:46:18;;;;;;;7.75;5.63;;;;;;;;;;5109967;28;20035;-71
2021/05/30 17:48:44;;;;;;;10.38;6.50;;;;;;;;;;5110331;28;20024;-71
2021/05/30 17:54:18;;;;;;;11.07;6.57;;;;;;;;;;5090453;27;20519;-72